sensor_id;sensor_type;location;lat;lon;timestamp;pressure;altitude;pressure_sealevel;temperature;humidity
50349;BME280;36250;48.740;22.174;2023-02-18T00:01:15;100447.56;;;6.85;85.86
50349;BME280;36250;48.740;22.174;2023-02-18T00:03:42;100447.41;;;6.80;86.07
50349;BME280;36250;48.740;22.174;2023-02-18T00:06:15;100452.66;;;6.75;86.35
50349;BME280;36250;48.740;22.174;2023-02-18T00:08:42;100459.28;;;6.79;86.16
50349;BME280;36250;48.740;22.174;2023-02-18T00:11:08;100454.50;;;6.81;86.05
50349;BME280;36250;48.740;22.174;2023-02-18T00:13:35;100445.63;;;6.68;86.22
50349;BME280;36250;48.740;22.174;2023-02-18T00:16:06;100451.50;;;6.65;86.00
50349;BME280;36250;48.740;22.174;2023-02-18T00:18:32;100452.16;;;6.60;86.18
50349;BME280;36250;48.740;22.174;2023-02-18T00:20:57;100447.59;;;6.54;86.32
50349;BME280;36250;48.740;22.174;2023-02-18T00:23:23;100452.84;;;6.49;86.63
50349;BME280;36250;48.740;22.174;2023-02-18T00:25:49;100449.53;;;6.47;86.72
50349;BME280;36250;48.740;22.174;2023-02-18T00:28:14;100438.72;;;6.47;86.64
50349;BME280;36250;48.740;22.174;2023-02-18T00:30:41;100441.19;;;6.48;86.26
50349;BME280;36250;48.740;22.174;2023-02-18T00:33:07;100437.44;;;6.49;86.60
50349;BME280;36250;48.740;22.174;2023-02-18T00:35:32;100428.44;;;6.55;86.67
50349;BME280;36250;48.740;22.174;2023-02-18T00:37:57;100428.66;;;6.54;86.13
50349;BME280;36250;48.740;22.174;2023-02-18T00:40:23;100429.50;;;6.54;86.57
50349;BME280;36250;48.740;22.174;2023-02-18T00:42:48;100416.81;;;6.55;86.42
50349;BME280;36250;48.740;22.174;2023-02-18T00:45:14;100398.09;;;6.53;86.32
50349;BME280;36250;48.740;22.174;2023-02-18T00:47:39;100410.56;;;6.54;86.27
50349;BME280;36250;48.740;22.174;2023-02-18T00:50:05;100394.34;;;6.54;86.27
50349;BME280;36250;48.740;22.174;2023-02-18T00:52:31;100388.72;;;6.56;86.14
50349;BME280;36250;48.740;22.174;2023-02-18T00:54:56;100394.13;;;6.56;86.26
50349;BME280;36250;48.740;22.174;2023-02-18T00:57:22;100400.38;;;6.56;86.15
50349;BME280;36250;48.740;22.174;2023-02-18T00:59:47;100376.44;;;6.60;86.67
50349;BME280;36250;48.740;22.174;2023-02-18T01:02:12;100386.19;;;6.61;86.77
50349;BME280;36250;48.740;22.174;2023-02-18T01:04:38;100406.53;;;6.63;86.32
50349;BME280;36250;48.740;22.174;2023-02-18T01:07:03;100403.66;;;6.65;86.05
50349;BME280;36250;48.740;22.174;2023-02-18T01:09:28;100403.19;;;6.68;86.40
50349;BME280;36250;48.740;22.174;2023-02-18T01:11:53;100396.31;;;6.72;86.38
50349;BME280;36250;48.740;22.174;2023-02-18T01:14:19;100383.16;;;6.76;86.27
50349;BME280;36250;48.740;22.174;2023-02-18T01:16:44;100376.91;;;6.75;85.68
50349;BME280;36250;48.740;22.174;2023-02-18T01:19:09;100361.91;;;6.79;86.12
50349;BME280;36250;48.740;22.174;2023-02-18T01:21:35;100366.25;;;6.80;85.75
50349;BME280;36250;48.740;22.174;2023-02-18T01:24:00;100358.13;;;6.80;86.03
50349;BME280;36250;48.740;22.174;2023-02-18T01:26:25;100355.00;;;6.83;85.56
50349;BME280;36250;48.740;22.174;2023-02-18T01:28:51;100375.44;;;6.79;85.56
50349;BME280;36250;48.740;22.174;2023-02-18T01:31:16;100385.31;;;6.67;86.00
50349;BME280;36250;48.740;22.174;2023-02-18T01:33:42;100375.78;;;6.58;86.13
50349;BME280;36250;48.740;22.174;2023-02-18T01:36:08;100367.06;;;6.56;86.52
50349;BME280;36250;48.740;22.174;2023-02-18T01:38:34;100373.09;;;6.58;86.50
50349;BME280;36250;48.740;22.174;2023-02-18T01:41:00;100371.81;;;6.60;86.65
50349;BME280;36250;48.740;22.174;2023-02-18T01:43:25;100358.53;;;6.59;86.35
50349;BME280;36250;48.740;22.174;2023-02-18T01:48:26;100354.16;;;6.58;86.58
50349;BME280;36250;48.740;22.174;2023-02-18T01:50:58;100362.91;;;6.60;86.14
50349;BME280;36250;48.740;22.174;2023-02-18T01:54:05;100395.28;;;6.42;86.11
50349;BME280;36250;48.740;22.174;2023-02-18T01:56:27;100383.31;;;6.25;86.32
50349;BME280;36250;48.740;22.174;2023-02-18T01:58:54;100358.56;;;6.28;87.16
50349;BME280;36250;48.740;22.174;2023-02-18T02:01:20;100377.25;;;6.29;87.10
50349;BME280;36250;48.740;22.174;2023-02-18T02:03:46;100378.94;;;6.24;86.73
50349;BME280;36250;48.740;22.174;2023-02-18T02:06:18;100357.31;;;6.24;87.08
50349;BME280;36250;48.740;22.174;2023-02-18T02:08:43;100373.72;;;6.29;87.42
50349;BME280;36250;48.740;22.174;2023-02-18T02:11:20;100360.38;;;6.34;87.22
50349;BME280;36250;48.740;22.174;2023-02-18T02:16:56;100344.34;;;6.39;86.79
50349;BME280;36250;48.740;22.174;2023-02-18T02:22:59;100351.84;;;6.37;86.94
50349;BME280;36250;48.740;22.174;2023-02-18T02:37:21;100365.00;;;6.27;86.92
50349;BME280;36250;48.740;22.174;2023-02-18T02:42:43;100359.59;;;6.27;86.83
50349;BME280;36250;48.740;22.174;2023-02-18T02:45:31;100361.28;;;6.28;87.02
50349;BME280;36250;48.740;22.174;2023-02-18T02:48:11;100354.00;;;6.28;87.12
50349;BME280;36250;48.740;22.174;2023-02-18T02:50:47;100352.94;;;6.29;86.81
50349;BME280;36250;48.740;22.174;2023-02-18T02:53:21;100359.78;;;6.32;86.71
50349;BME280;36250;48.740;22.174;2023-02-18T02:55:48;100351.91;;;6.30;86.63
50349;BME280;36250;48.740;22.174;2023-02-18T02:58:15;100363.38;;;6.26;86.74
50349;BME280;36250;48.740;22.174;2023-02-18T03:12:10;100394.66;;;6.02;87.90
50349;BME280;36250;48.740;22.174;2023-02-18T03:17:24;100398.16;;;6.16;87.80
50349;BME280;36250;48.740;22.174;2023-02-18T03:19:57;100407.72;;;6.12;87.67
50349;BME280;36250;48.740;22.174;2023-02-18T03:22:33;100375.50;;;6.10;88.16
50349;BME280;36250;48.740;22.174;2023-02-18T03:25:02;100391.91;;;6.15;88.12
50349;BME280;36250;48.740;22.174;2023-02-18T03:27:58;100382.59;;;6.11;87.83
50349;BME280;36250;48.740;22.174;2023-02-18T03:30:28;100378.00;;;6.12;87.57
50349;BME280;36250;48.740;22.174;2023-02-18T03:32:57;100356.16;;;6.13;87.58
50349;BME280;36250;48.740;22.174;2023-02-18T03:35:23;100342.19;;;6.16;88.27
50349;BME280;36250;48.740;22.174;2023-02-18T03:38:03;100353.41;;;6.20;87.91
50349;BME280;36250;48.740;22.174;2023-02-18T03:40:32;100352.22;;;6.16;88.05
50349;BME280;36250;48.740;22.174;2023-02-18T03:42:58;100360.75;;;6.13;87.53
50349;BME280;36250;48.740;22.174;2023-02-18T03:45:25;100365.13;;;6.14;87.89
50349;BME280;36250;48.740;22.174;2023-02-18T03:47:51;100368.19;;;6.17;87.58
50349;BME280;36250;48.740;22.174;2023-02-18T03:50:16;100361.78;;;6.12;87.51
50349;BME280;36250;48.740;22.174;2023-02-18T03:52:42;100369.09;;;6.05;87.26
50349;BME280;36250;48.740;22.174;2023-02-18T03:55:07;100359.13;;;6.05;87.51
50349;BME280;36250;48.740;22.174;2023-02-18T03:57:33;100375.94;;;6.07;87.49
50349;BME280;36250;48.740;22.174;2023-02-18T03:59:59;100376.84;;;5.94;87.31
50349;BME280;36250;48.740;22.174;2023-02-18T04:02:24;100385.59;;;5.83;87.46
50349;BME280;36250;48.740;22.174;2023-02-18T04:04:49;100396.63;;;5.75;88.10
50349;BME280;36250;48.740;22.174;2023-02-18T04:07:15;100384.19;;;5.74;88.15
50349;BME280;36250;48.740;22.174;2023-02-18T04:09:40;100393.09;;;5.75;88.84
50349;BME280;36250;48.740;22.174;2023-02-18T04:12:06;100409.13;;;5.76;89.07
50349;BME280;36250;48.740;22.174;2023-02-18T04:14:31;100414.28;;;5.78;88.48
50349;BME280;36250;48.740;22.174;2023-02-18T04:16:57;100437.34;;;5.80;89.09
50349;BME280;36250;48.740;22.174;2023-02-18T04:19:22;100435.06;;;5.77;88.64
50349;BME280;36250;48.740;22.174;2023-02-18T04:21:47;100449.81;;;5.81;89.23
50349;BME280;36250;48.740;22.174;2023-02-18T04:24:13;100451.47;;;5.82;89.26
50349;BME280;36250;48.740;22.174;2023-02-18T04:26:38;100445.66;;;5.85;88.75
50349;BME280;36250;48.740;22.174;2023-02-18T04:29:03;100444.81;;;5.91;89.02
50349;BME280;36250;48.740;22.174;2023-02-18T04:31:29;100439.16;;;6.00;89.12
50349;BME280;36250;48.740;22.174;2023-02-18T04:33:54;100450.16;;;6.05;88.96
50349;BME280;36250;48.740;22.174;2023-02-18T04:36:19;100474.28;;;6.00;88.97
50349;BME280;36250;48.740;22.174;2023-02-18T04:38:45;100479.06;;;5.97;89.32
50349;BME280;36250;48.740;22.174;2023-02-18T04:41:10;100449.78;;;6.01;88.99
50349;BME280;36250;48.740;22.174;2023-02-18T04:43:37;100461.56;;;6.07;88.98
50349;BME280;36250;48.740;22.174;2023-02-18T04:46:02;100440.38;;;6.10;89.26
50349;BME280;36250;48.740;22.174;2023-02-18T04:48:28;100461.75;;;6.18;88.74
50349;BME280;36250;48.740;22.174;2023-02-18T04:50:53;100471.72;;;6.18;88.54
50349;BME280;36250;48.740;22.174;2023-02-18T04:53:18;100468.41;;;6.16;88.83
50349;BME280;36250;48.740;22.174;2023-02-18T04:55:49;100446.56;;;6.17;88.61
50349;BME280;36250;48.740;22.174;2023-02-18T04:58:14;100436.16;;;6.21;88.76
50349;BME280;36250;48.740;22.174;2023-02-18T05:00:40;100436.78;;;6.23;88.40
50349;BME280;36250;48.740;22.174;2023-02-18T05:03:05;100380.66;;;6.18;88.37
50349;BME280;36250;48.740;22.174;2023-02-18T05:05:30;100388.13;;;6.16;88.40
50349;BME280;36250;48.740;22.174;2023-02-18T05:07:55;100406.91;;;6.11;88.77
50349;BME280;36250;48.740;22.174;2023-02-18T05:10:21;100435.38;;;6.07;88.43
50349;BME280;36250;48.740;22.174;2023-02-18T05:12:46;100434.81;;;5.99;88.68
50349;BME280;36250;48.740;22.174;2023-02-18T05:15:11;100426.09;;;5.97;88.95
50349;BME280;36250;48.740;22.174;2023-02-18T05:17:38;100425.03;;;5.97;89.05
50349;BME280;36250;48.740;22.174;2023-02-18T05:20:04;100417.16;;;5.96;88.25
50349;BME280;36250;48.740;22.174;2023-02-18T05:22:29;100409.47;;;5.93;88.69
50349;BME280;36250;48.740;22.174;2023-02-18T05:24:54;100414.94;;;5.86;88.57
50349;BME280;36250;48.740;22.174;2023-02-18T05:27:20;100406.19;;;5.84;87.74
50349;BME280;36250;48.740;22.174;2023-02-18T05:29:45;100438.19;;;5.81;88.24
50349;BME280;36250;48.740;22.174;2023-02-18T05:32:11;100431.56;;;5.77;88.32
50349;BME280;36250;48.740;22.174;2023-02-18T05:34:36;100439.22;;;5.80;88.54
50349;BME280;36250;48.740;22.174;2023-02-18T05:37:01;100452.31;;;5.76;88.84
50349;BME280;36250;48.740;22.174;2023-02-18T05:39:26;100443.81;;;5.73;88.34
50349;BME280;36250;48.740;22.174;2023-02-18T05:41:52;100451.53;;;5.56;87.83
50349;BME280;36250;48.740;22.174;2023-02-18T05:44:17;100455.31;;;5.42;88.55
50349;BME280;36250;48.740;22.174;2023-02-18T05:46:56;100453.66;;;5.35;88.45
50349;BME280;36250;48.740;22.174;2023-02-18T05:49:22;100456.56;;;5.33;88.81
50349;BME280;36250;48.740;22.174;2023-02-18T05:51:48;100452.84;;;5.27;89.05
50349;BME280;36250;48.740;22.174;2023-02-18T05:54:13;100452.66;;;5.22;88.67
50349;BME280;36250;48.740;22.174;2023-02-18T05:56:38;100457.81;;;5.24;88.59
50349;BME280;36250;48.740;22.174;2023-02-18T05:59:03;100460.72;;;5.29;89.11
50349;BME280;36250;48.740;22.174;2023-02-18T06:01:29;100455.16;;;5.30;88.93
50349;BME280;36250;48.740;22.174;2023-02-18T06:03:54;100450.34;;;5.32;88.47
50349;BME280;36250;48.740;22.174;2023-02-18T06:06:19;100450.34;;;5.32;88.25
50349;BME280;36250;48.740;22.174;2023-02-18T06:08:45;100464.03;;;5.31;88.97
50349;BME280;36250;48.740;22.174;2023-02-18T06:11:10;100459.69;;;5.30;88.59
50349;BME280;36250;48.740;22.174;2023-02-18T06:13:35;100445.16;;;5.38;88.14
50349;BME280;36250;48.740;22.174;2023-02-18T06:16:01;100471.50;;;5.36;88.45
50349;BME280;36250;48.740;22.174;2023-02-18T06:18:26;100464.03;;;5.31;88.42
50349;BME280;36250;48.740;22.174;2023-02-18T06:20:51;100428.75;;;5.39;89.31
50349;BME280;36250;48.740;22.174;2023-02-18T06:23:17;100460.72;;;5.36;89.56
50349;BME280;36250;48.740;22.174;2023-02-18T06:25:42;100414.63;;;5.44;89.70
50349;BME280;36250;48.740;22.174;2023-02-18T06:28:08;100459.44;;;5.64;89.74
50349;BME280;36250;48.740;22.174;2023-02-18T06:30:33;100445.13;;;5.44;88.85
50349;BME280;36250;48.740;22.174;2023-02-18T06:32:59;100473.59;;;5.47;89.23
50349;BME280;36250;48.740;22.174;2023-02-18T06:35:24;100467.34;;;5.46;88.94
50349;BME280;36250;48.740;22.174;2023-02-18T06:37:50;100467.97;;;5.42;88.57
50349;BME280;36250;48.740;22.174;2023-02-18T06:40:15;100474.84;;;5.38;88.84
50349;BME280;36250;48.740;22.174;2023-02-18T06:42:42;100476.09;;;5.35;88.73
50349;BME280;36250;48.740;22.174;2023-02-18T06:45:08;100472.13;;;5.31;88.63
50349;BME280;36250;48.740;22.174;2023-02-18T06:47:33;100470.50;;;5.30;88.64
50349;BME280;36250;48.740;22.174;2023-02-18T06:49:59;100466.09;;;5.36;88.56
50349;BME280;36250;48.740;22.174;2023-02-18T06:52:24;100467.75;;;5.43;88.39
50349;BME280;36250;48.740;22.174;2023-02-18T06:54:49;100463.63;;;5.47;88.55
50349;BME280;36250;48.740;22.174;2023-02-18T06:57:15;100476.25;;;5.53;88.37
50349;BME280;36250;48.740;22.174;2023-02-18T06:59:40;100478.75;;;5.48;88.64
50349;BME280;36250;48.740;22.174;2023-02-18T07:02:06;100471.91;;;5.52;88.10
50349;BME280;36250;48.740;22.174;2023-02-18T07:04:31;100486.84;;;5.61;88.10
50349;BME280;36250;48.740;22.174;2023-02-18T07:06:56;100496.63;;;5.62;87.99
50349;BME280;36250;48.740;22.174;2023-02-18T07:09:22;100496.84;;;5.54;87.67
50349;BME280;36250;48.740;22.174;2023-02-18T07:11:47;100492.03;;;5.56;88.17
50349;BME280;36250;48.740;22.174;2023-02-18T07:14:12;100503.03;;;5.61;87.86
50349;BME280;36250;48.740;22.174;2023-02-18T07:16:38;100498.47;;;5.68;88.07
50349;BME280;36250;48.740;22.174;2023-02-18T07:19:03;100499.47;;;5.80;88.08
50349;BME280;36250;48.740;22.174;2023-02-18T07:21:28;100505.28;;;5.90;87.46
50349;BME280;36250;48.740;22.174;2023-02-18T07:23:54;100505.47;;;5.95;87.37
50349;BME280;36250;48.740;22.174;2023-02-18T07:26:19;100507.97;;;6.04;87.13
50349;BME280;36250;48.740;22.174;2023-02-18T07:28:44;100512.91;;;6.13;87.07
50349;BME280;36250;48.740;22.174;2023-02-18T07:31:10;100509.34;;;6.19;87.55
50349;BME280;36250;48.740;22.174;2023-02-18T07:33:35;100500.75;;;6.29;87.43
50349;BME280;36250;48.740;22.174;2023-02-18T07:36:01;100490.75;;;6.36;86.82
50349;BME280;36250;48.740;22.174;2023-02-18T07:38:27;100507.81;;;6.36;86.39
50349;BME280;36250;48.740;22.174;2023-02-18T07:40:53;100503.66;;;6.34;86.64
50349;BME280;36250;48.740;22.174;2023-02-18T07:43:19;100520.28;;;6.37;86.88
50349;BME280;36250;48.740;22.174;2023-02-18T07:45:45;100478.09;;;6.30;86.49
50349;BME280;36250;48.740;22.174;2023-02-18T07:48:11;100516.38;;;6.27;86.38
50349;BME280;36250;48.740;22.174;2023-02-18T07:50:41;100509.75;;;6.16;86.46
50349;BME280;36250;48.740;22.174;2023-02-18T07:53:07;100515.34;;;6.21;86.48
50349;BME280;36250;48.740;22.174;2023-02-18T07:55:32;100511.81;;;6.27;86.32
50349;BME280;36250;48.740;22.174;2023-02-18T07:58:21;100507.03;;;6.23;86.35
50349;BME280;36250;48.740;22.174;2023-02-18T08:00:48;100516.97;;;6.29;86.33
50349;BME280;36250;48.740;22.174;2023-02-18T08:03:15;100512.38;;;6.36;86.81
50349;BME280;36250;48.740;22.174;2023-02-18T08:05:41;100506.97;;;6.42;86.75
50349;BME280;36250;48.740;22.174;2023-02-18T08:08:06;100520.84;;;6.46;86.28
50349;BME280;36250;48.740;22.174;2023-02-18T08:10:32;100520.72;;;6.34;86.31
50349;BME280;36250;48.740;22.174;2023-02-18T08:12:57;100511.53;;;6.42;87.13
50349;BME280;36250;48.740;22.174;2023-02-18T08:15:22;100516.41;;;6.58;86.92
50349;BME280;36250;48.740;22.174;2023-02-18T08:17:48;100499.53;;;6.69;86.38
50349;BME280;36250;48.740;22.174;2023-02-18T08:20:13;100486.34;;;6.79;86.48
50349;BME280;36250;48.740;22.174;2023-02-18T08:22:38;100495.41;;;6.91;86.52
50349;BME280;36250;48.740;22.174;2023-02-18T08:25:04;100509.56;;;6.93;85.87
50349;BME280;36250;48.740;22.174;2023-02-18T08:27:30;100501.19;;;6.95;86.13
50349;BME280;36250;48.740;22.174;2023-02-18T08:29:55;100500.69;;;7.11;86.02
50349;BME280;36250;48.740;22.174;2023-02-18T08:32:21;100500.34;;;7.25;85.77
50349;BME280;36250;48.740;22.174;2023-02-18T08:34:46;100505.16;;;7.23;85.30
50349;BME280;36250;48.740;22.174;2023-02-18T08:37:11;100502.56;;;7.35;85.52
50349;BME280;36250;48.740;22.174;2023-02-18T08:39:37;100510.78;;;7.47;85.10
50349;BME280;36250;48.740;22.174;2023-02-18T08:42:04;100514.41;;;7.59;84.83
50349;BME280;36250;48.740;22.174;2023-02-18T08:44:29;100528.00;;;7.77;84.74
50349;BME280;36250;48.740;22.174;2023-02-18T08:46:54;100525.59;;;7.87;83.93
50349;BME280;36250;48.740;22.174;2023-02-18T08:49:20;100528.38;;;7.80;83.09
50349;BME280;36250;48.740;22.174;2023-02-18T08:51:51;100518.44;;;7.74;84.13
50349;BME280;36250;48.740;22.174;2023-02-18T08:54:17;100512.41;;;7.90;84.34
50349;BME280;36250;48.740;22.174;2023-02-18T08:56:42;100522.72;;;8.00;83.71
50349;BME280;36250;48.740;22.174;2023-02-18T08:59:07;100529.94;;;7.88;83.26
50349;BME280;36250;48.740;22.174;2023-02-18T09:01:33;100512.84;;;7.87;83.95
50349;BME280;36250;48.740;22.174;2023-02-18T09:03:58;100509.78;;;8.02;84.02
50349;BME280;36250;48.740;22.174;2023-02-18T09:06:24;100517.63;;;8.10;83.68
50349;BME280;36250;48.740;22.174;2023-02-18T09:08:49;100511.00;;;8.06;82.91
50349;BME280;36250;48.740;22.174;2023-02-18T09:11:15;100506.03;;;8.03;83.30
50349;BME280;36250;48.740;22.174;2023-02-18T09:13:41;100503.16;;;8.16;83.73
50349;BME280;36250;48.740;22.174;2023-02-18T09:16:15;100510.84;;;8.37;83.35
50349;BME280;36250;48.740;22.174;2023-02-18T09:18:43;100513.41;;;8.50;82.79
50349;BME280;36250;48.740;22.174;2023-02-18T09:21:10;100506.72;;;8.65;82.23
50349;BME280;36250;48.740;22.174;2023-02-18T09:23:35;100516.47;;;8.84;82.12
50349;BME280;36250;48.740;22.174;2023-02-18T09:26:07;100509.78;;;8.98;81.95
50349;BME280;36250;48.740;22.174;2023-02-18T09:28:33;100511.25;;;9.12;81.14
50349;BME280;36250;48.740;22.174;2023-02-18T09:31:07;100516.44;;;9.25;80.53
50349;BME280;36250;48.740;22.174;2023-02-18T09:33:42;100505.97;;;9.40;80.78
50349;BME280;36250;48.740;22.174;2023-02-18T09:36:08;100511.50;;;9.57;80.58
50349;BME280;36250;48.740;22.174;2023-02-18T09:38:33;100509.50;;;9.64;80.04
50349;BME280;36250;48.740;22.174;2023-02-18T09:41:02;100512.25;;;9.75;79.61
50349;BME280;36250;48.740;22.174;2023-02-18T09:43:32;100495.31;;;9.73;78.85
50349;BME280;36250;48.740;22.174;2023-02-18T09:46:00;100501.84;;;9.72;79.28
50349;BME280;36250;48.740;22.174;2023-02-18T09:48:29;100485.06;;;9.75;78.67
50349;BME280;36250;48.740;22.174;2023-02-18T09:50:55;100489.88;;;9.85;78.75
50349;BME280;36250;48.740;22.174;2023-02-18T09:53:23;100481.69;;;9.97;78.46
50349;BME280;36250;48.740;22.174;2023-02-18T09:55:51;100484.06;;;10.05;77.90
50349;BME280;36250;48.740;22.174;2023-02-18T09:58:23;100479.53;;;10.10;77.51
50349;BME280;36250;48.740;22.174;2023-02-18T10:03:28;100477.78;;;10.16;77.92
50349;BME280;36250;48.740;22.174;2023-02-18T10:06:01;100484.16;;;10.10;77.20
50349;BME280;36250;48.740;22.174;2023-02-18T10:08:29;100489.88;;;9.97;77.71
50349;BME280;36250;48.740;22.174;2023-02-18T10:10:57;100501.34;;;9.87;77.80
50349;BME280;36250;48.740;22.174;2023-02-18T10:13:28;100501.56;;;9.85;78.39
50349;BME280;36250;48.740;22.174;2023-02-18T10:15:54;100506.44;;;9.60;78.84
50349;BME280;36250;48.740;22.174;2023-02-18T10:20:58;100506.78;;;9.52;79.88
50349;BME280;36250;48.740;22.174;2023-02-18T10:23:26;100497.34;;;9.43;79.95
50349;BME280;36250;48.740;22.174;2023-02-18T10:25:54;100484.13;;;9.58;79.85
50349;BME280;36250;48.740;22.174;2023-02-18T10:28:22;100492.38;;;9.63;79.14
50349;BME280;36250;48.740;22.174;2023-02-18T10:30:57;100489.28;;;9.71;79.01
50349;BME280;36250;48.740;22.174;2023-02-18T10:36:12;100498.97;;;9.79;78.54
50349;BME280;36250;48.740;22.174;2023-02-18T10:44:23;100494.09;;;10.04;77.87
50349;BME280;36250;48.740;22.174;2023-02-18T10:52:35;100497.34;;;9.78;79.00
50349;BME280;36250;48.740;22.174;2023-02-18T10:57:28;100493.22;;;9.75;79.15
50349;BME280;36250;48.740;22.174;2023-02-18T10:59:55;100479.38;;;9.65;79.68
50349;BME280;36250;48.740;22.174;2023-02-18T11:02:23;100483.38;;;9.74;80.09
50349;BME280;36250;48.740;22.174;2023-02-18T11:04:50;100450.88;;;9.79;80.24
50349;BME280;36250;48.740;22.174;2023-02-18T11:07:21;100455.00;;;9.82;79.72
50349;BME280;36250;48.740;22.174;2023-02-18T11:09:54;100448.50;;;9.83;80.05
50349;BME280;36250;48.740;22.174;2023-02-18T11:17:35;100436.44;;;9.79;79.88
50349;BME280;36250;48.740;22.174;2023-02-18T11:22:57;100425.94;;;9.82;80.69
50349;BME280;36250;48.740;22.174;2023-02-18T11:25:27;100425.69;;;9.84;80.85
50349;BME280;36250;48.740;22.174;2023-02-18T11:28:00;100413.25;;;9.88;80.59
50349;BME280;36250;48.740;22.174;2023-02-18T11:30:37;100415.75;;;9.89;80.40
50349;BME280;36250;48.740;22.174;2023-02-18T11:35:57;100408.53;;;9.95;80.19
50349;BME280;36250;48.740;22.174;2023-02-18T11:38:37;100409.84;;;9.93;80.42
50349;BME280;36250;48.740;22.174;2023-02-18T11:41:14;100410.91;;;9.91;80.34
50349;BME280;36250;48.740;22.174;2023-02-18T11:43:42;100401.06;;;9.90;80.18
50349;BME280;36250;48.740;22.174;2023-02-18T11:48:34;100390.19;;;9.90;80.16
50349;BME280;36250;48.740;22.174;2023-02-18T11:51:00;100387.84;;;9.94;80.32
50349;BME280;36250;48.740;22.174;2023-02-18T11:53:29;100396.81;;;9.95;80.21
50349;BME280;36250;48.740;22.174;2023-02-18T11:56:09;100394.94;;;9.95;79.57
50349;BME280;36250;48.740;22.174;2023-02-18T11:58:43;100401.44;;;9.94;79.42
50349;BME280;36250;48.740;22.174;2023-02-18T12:01:42;100400.59;;;9.93;79.64
50349;BME280;36250;48.740;22.174;2023-02-18T12:04:15;100388.31;;;9.91;79.56
50349;BME280;36250;48.740;22.174;2023-02-18T12:06:52;100398.03;;;9.87;79.96
50349;BME280;36250;48.740;22.174;2023-02-18T12:10:00;100380.31;;;9.84;80.38
50349;BME280;36250;48.740;22.174;2023-02-18T12:12:39;100377.59;;;9.84;80.05
50349;BME280;36250;48.740;22.174;2023-02-18T12:15:08;100382.56;;;9.76;80.37
50349;BME280;36250;48.740;22.174;2023-02-18T12:25:52;100369.84;;;9.65;80.86
50349;BME280;36250;48.740;22.174;2023-02-18T12:51:25;100343.88;;;9.85;80.87
50349;BME280;36250;48.740;22.174;2023-02-18T12:54:18;100344.28;;;9.77;80.65
50349;BME280;36250;48.740;22.174;2023-02-18T12:57:01;100342.16;;;9.79;81.41
50349;BME280;36250;48.740;22.174;2023-02-18T13:02:57;100331.22;;;9.91;81.07
50349;BME280;36250;48.740;22.174;2023-02-18T13:05:48;100332.97;;;9.97;81.08
50349;BME280;36250;48.740;22.174;2023-02-18T13:16:37;100325.91;;;9.56;81.83
50349;BME280;36250;48.740;22.174;2023-02-18T13:21:52;100326.53;;;9.35;82.48
50349;BME280;36250;48.740;22.174;2023-02-18T13:24:32;100333.28;;;9.33;82.70
50349;BME280;36250;48.740;22.174;2023-02-18T13:27:14;100331.97;;;9.35;83.14
50349;BME280;36250;48.740;22.174;2023-02-18T13:29:49;100316.66;;;9.29;83.14
50349;BME280;36250;48.740;22.174;2023-02-18T13:32:45;100312.16;;;9.23;83.11
50349;BME280;36250;48.740;22.174;2023-02-18T13:35:26;100298.81;;;9.21;83.15
50349;BME280;36250;48.740;22.174;2023-02-18T13:38:25;100298.69;;;9.28;83.26
50349;BME280;36250;48.740;22.174;2023-02-18T13:40:55;100295.00;;;9.34;83.29
50349;BME280;36250;48.740;22.174;2023-02-18T13:43:31;100285.91;;;9.40;83.26
50349;BME280;36250;48.740;22.174;2023-02-18T13:48:35;100295.69;;;9.53;82.80
50349;BME280;36250;48.740;22.174;2023-02-18T13:51:03;100280.69;;;9.50;83.22
50349;BME280;36250;48.740;22.174;2023-02-18T13:53:34;100280.69;;;9.50;83.25
50349;BME280;36250;48.740;22.174;2023-02-18T13:56:08;100283.50;;;9.55;82.80
50349;BME280;36250;48.740;22.174;2023-02-18T13:58:48;100278.38;;;9.59;82.92
50349;BME280;36250;48.740;22.174;2023-02-18T14:01:27;100278.75;;;9.62;82.72
50349;BME280;36250;48.740;22.174;2023-02-18T14:04:00;100269.03;;;9.66;82.47
50349;BME280;36250;48.740;22.174;2023-02-18T14:06:34;100272.31;;;9.68;82.46
50349;BME280;36250;48.740;22.174;2023-02-18T14:09:38;100273.41;;;9.67;82.57
50349;BME280;36250;48.740;22.174;2023-02-18T14:11:57;100270.00;;;9.60;82.77
50349;BME280;36250;48.740;22.174;2023-02-18T14:14:39;100265.22;;;9.51;82.62
50349;BME280;36250;48.740;22.174;2023-02-18T14:17:28;100250.59;;;9.40;83.35
50349;BME280;36250;48.740;22.174;2023-02-18T14:22:45;100257.91;;;9.40;83.55
50349;BME280;36250;48.740;22.174;2023-02-18T14:27:55;100239.88;;;9.34;83.70
50349;BME280;36250;48.740;22.174;2023-02-18T14:32:46;100244.84;;;9.25;83.96
50349;BME280;36250;48.740;22.174;2023-02-18T14:48:49;100242.09;;;8.97;85.08
50349;BME280;36250;48.740;22.174;2023-02-18T14:51:22;100224.72;;;8.98;85.40
50349;BME280;36250;48.740;22.174;2023-02-18T14:53:49;100218.22;;;8.99;85.29
50349;BME280;36250;48.740;22.174;2023-02-18T14:56:18;100207.38;;;8.99;85.37
50349;BME280;36250;48.740;22.174;2023-02-18T14:58:53;100208.53;;;9.03;85.26
50349;BME280;36250;48.740;22.174;2023-02-18T15:01:32;100208.53;;;9.03;85.28
50349;BME280;36250;48.740;22.174;2023-02-18T15:03:59;100201.09;;;8.98;84.90
50349;BME280;36250;48.740;22.174;2023-02-18T15:08:55;100205.50;;;8.99;85.17
50349;BME280;36250;48.740;22.174;2023-02-18T15:11:35;100206.91;;;9.02;85.22
50349;BME280;36250;48.740;22.174;2023-02-18T15:14:07;100204.81;;;8.92;85.35
50349;BME280;36250;48.740;22.174;2023-02-18T15:16:35;100191.81;;;8.83;84.93
50349;BME280;36250;48.740;22.174;2023-02-18T15:19:14;100196.31;;;8.77;85.68
50349;BME280;36250;48.740;22.174;2023-02-18T15:21:43;100210.13;;;8.76;85.94
50349;BME280;36250;48.740;22.174;2023-02-18T15:26:42;100206.94;;;8.79;85.56